Time;durP1;ratioP1;P1;durP2;ratioP2;P2;SDS_P1;SDS_P2;PMS_P1;PMS_P2;Temp;Humidity;BMP_temperature;BMP_pressure;BME280_temperature;BME280_humidity;BME280_pressure;Samples;Min_cycle;Max_cycle;Signal;HPM_P1;HPM_P2
2023/11/25 00:00:19;;;;;;;8.10;4.90;;;;;;;-0.35;100.00;96935.02;109633;1251;60121;-65
2023/11/25 00:02:47;;;;;;;7.60;4.70;;;;;;;-0.35;100.00;96935.71;109689;1251;74608;-65
2023/11/25 00:05:14;;;;;;;6.80;4.60;;;;;;;-0.35;100.00;96938.35;109725;1251;67690;-65
2023/11/25 00:07:40;;;;;;;7.80;5.50;;;;;;;-0.34;100.00;96938.58;109687;1251;71188;-65
2023/11/25 00:10:07;;;;;;;11.10;5.90;;;;;;;-0.36;100.00;96934.23;109581;1250;60926;-63
2023/11/25 00:12:34;;;;;;;7.60;4.90;;;;;;;-0.38;100.00;96927.50;109620;1250;59128;-64
2023/11/25 00:15:02;;;;;;;8.40;5.40;;;;;;;-0.40;100.00;96926.17;109627;1251;74489;-66
2023/11/25 00:17:30;;;;;;;8.10;4.90;;;;;;;-0.42;100.00;96928.61;109641;1251;67005;-64
2023/11/25 00:19:57;;;;;;;9.00;5.60;;;;;;;-0.43;100.00;96932.08;109618;1249;71386;-64
2023/11/25 00:22:23;;;;;;;8.60;4.90;;;;;;;-0.43;100.00;96937.81;109600;1250;59621;-65
2023/11/25 00:24:50;;;;;;;6.80;4.20;;;;;;;-0.43;100.00;96937.50;109663;1250;59599;-65
2023/11/25 00:27:17;;;;;;;6.90;5.10;;;;;;;-0.44;100.00;96940.89;109658;1251;74445;-65
2023/11/25 00:29:45;;;;;;;7.40;4.90;;;;;;;-0.45;100.00;96947.07;109669;1250;67580;-64
2023/11/25 00:32:11;;;;;;;10.50;4.80;;;;;;;-0.46;100.00;96948.95;109613;1251;72508;-65
2023/11/25 00:34:38;;;;;;;9.60;5.90;;;;;;;-0.50;100.00;96946.40;109598;1250;61056;-65
2023/11/25 00:37:06;;;;;;;9.20;5.20;;;;;;;-0.52;100.00;96945.59;109646;1251;58988;-65
2023/11/25 00:39:33;;;;;;;8.80;5.30;;;;;;;-0.54;100.00;96948.58;109686;1250;73121;-65
2023/11/25 00:41:59;;;;;;;10.00;5.50;;;;;;;-0.57;100.00;96956.48;109553;1254;67679;-65
2023/11/25 00:44:26;;;;;;;6.70;5.30;;;;;;;-0.57;100.00;96965.59;109645;1250;72715;-65
2023/11/25 00:46:52;;;;;;;7.90;4.80;;;;;;;-0.57;100.00;96972.07;109644;1250;59164;-65
2023/11/25 00:49:19;;;;;;;7.00;4.20;;;;;;;-0.58;100.00;96981.38;109664;1250;60223;-65
2023/11/25 00:51:46;;;;;;;6.90;4.40;;;;;;;-0.59;100.00;96987.40;109627;1251;73205;-65
2023/11/25 00:54:12;;;;;;;9.00;4.90;;;;;;;-0.61;100.00;96989.19;109668;1250;59197;-65
2023/11/25 00:56:39;;;;;;;8.00;5.10;;;;;;;-0.63;100.00;96989.39;109628;1250;59004;-64
2023/11/25 00:59:06;;;;;;;9.80;6.20;;;;;;;-0.64;100.00;96995.39;109599;1250;59025;-65
2023/11/25 01:01:34;;;;;;;9.00;5.70;;;;;;;-0.65;100.00;96995.55;109496;1251;60039;-65
2023/11/25 01:04:03;;;;;;;9.30;6.40;;;;;;;-0.42;100.00;96993.40;109693;1250;73754;-65
2023/11/25 01:06:30;;;;;;;7.80;5.00;;;;;;;-0.55;100.00;97000.69;109663;1250;67853;-66
2023/11/25 01:08:56;;;;;;;7.80;5.60;;;;;;;-0.40;100.00;97005.25;109633;1250;59310;-65
2023/11/25 01:11:23;;;;;;;9.80;5.20;;;;;;;-0.38;100.00;97014.91;109655;1251;59571;-65
2023/11/25 01:13:50;;;;;;;10.50;5.40;;;;;;;-0.37;100.00;97021.61;109646;1250;58884;-65
2023/11/25 01:16:17;;;;;;;9.20;5.00;;;;;;;-0.39;100.00;97028.83;109666;1250;74512;-65
2023/11/25 01:18:43;;;;;;;8.10;4.40;;;;;;;-0.55;100.00;97032.08;109660;1250;67596;-64
2023/11/25 01:21:11;;;;;;;10.90;5.70;;;;;;;-0.56;100.00;97033.43;109500;1251;72804;-64
2023/11/25 01:23:37;;;;;;;9.90;5.10;;;;;;;-0.54;100.00;97036.88;109585;1250;59724;-64
2023/11/25 01:26:04;;;;;;;10.20;5.10;;;;;;;-0.52;100.00;97035.47;109576;1251;59884;-64
2023/11/25 01:28:32;;;;;;;8.80;4.80;;;;;;;-0.52;100.00;97031.81;109653;1250;75264;-65
2023/11/25 01:30:59;;;;;;;10.60;5.60;;;;;;;-0.47;100.00;97032.73;109646;1251;67757;-65
2023/11/25 01:33:26;;;;;;;9.00;5.70;;;;;;;-0.38;100.00;97030.27;109615;1251;71098;-64
2023/11/25 01:35:52;;;;;;;11.50;5.80;;;;;;;-0.51;100.00;97030.05;109650;1251;59772;-65
2023/11/25 01:38:19;;;;;;;9.30;5.40;;;;;;;-0.54;100.00;97024.10;109554;1250;59657;-65
2023/11/25 01:40:45;;;;;;;9.80;5.30;;;;;;;-0.59;100.00;97018.45;109556;1251;75536;-65
2023/11/25 01:43:14;;;;;;;10.40;5.50;;;;;;;-0.60;100.00;97014.34;109585;1250;66693;-65
2023/11/25 01:45:42;;;;;;;12.20;5.70;;;;;;;-0.61;100.00;97016.14;109628;1250;72544;-65
2023/11/25 01:48:08;;;;;;;16.50;7.80;;;;;;;-0.61;100.00;97016.54;109656;1249;60261;-65
2023/11/25 01:50:36;;;;;;;10.80;6.90;;;;;;;-0.64;100.00;97011.55;109659;1250;60421;-65
2023/11/25 01:53:04;;;;;;;8.40;5.40;;;;;;;-0.67;100.00;97013.77;109668;1250;75423;-65
2023/11/25 01:55:32;;;;;;;10.30;6.30;;;;;;;-0.70;100.00;97012.52;109486;1250;67716;-65
2023/11/25 01:57:59;;;;;;;11.00;6.00;;;;;;;-0.73;100.00;97013.39;109553;1251;72501;-65
2023/11/25 02:00:28;;;;;;;9.40;5.30;;;;;;;-0.75;100.00;97011.69;109533;1250;60266;-65
2023/11/25 02:02:55;;;;;;;10.00;6.00;;;;;;;-0.77;100.00;97010.31;109620;1250;59653;-65
2023/11/25 02:05:21;;;;;;;10.50;6.50;;;;;;;-0.76;100.00;97011.01;109581;1250;72915;-65
2023/11/25 02:07:48;;;;;;;8.70;5.70;;;;;;;-0.77;100.00;97011.91;109602;1251;66444;-65
2023/11/25 02:10:15;;;;;;;9.00;5.90;;;;;;;-0.80;100.00;97013.44;109620;1251;59765;-65
2023/11/25 02:12:41;;;;;;;10.30;5.70;;;;;;;-0.85;100.00;97015.86;109577;1251;59787;-65
2023/11/25 02:15:11;;;;;;;9.80;5.90;;;;;;;-0.92;100.00;97021.88;109582;1251;59846;-65
2023/11/25 02:17:38;;;;;;;8.30;6.10;;;;;;;-1.00;100.00;97028.94;109583;1251;75373;-64
2023/11/25 02:20:06;;;;;;;13.90;7.10;;;;;;;-1.05;100.00;97031.72;109555;1251;66773;-65
2023/11/25 02:22:32;;;;;;;12.70;7.80;;;;;;;-1.07;100.00;97029.72;109659;1249;71474;-65
2023/11/25 02:24:59;;;;;;;13.20;7.30;;;;;;;-1.08;100.00;97027.36;109633;1250;59709;-65
2023/11/25 02:27:25;;;;;;;11.50;7.40;;;;;;;-1.09;100.00;97028.54;109613;1250;59792;-65
2023/11/25 02:29:52;;;;;;;11.60;6.50;;;;;;;-1.12;100.00;97023.30;109604;1250;59885;-65
2023/11/25 02:32:19;;;;;;;11.50;7.60;;;;;;;-1.15;100.00;97015.95;109686;1250;67671;-65
2023/11/25 02:34:45;;;;;;;8.90;6.60;;;;;;;-1.20;100.00;97016.42;109663;1250;72702;-65
2023/11/25 02:37:15;;;;;;;12.40;6.90;;;;;;;-1.24;100.00;97014.38;109638;1250;59888;-65
2023/11/25 02:39:42;;;;;;;9.40;6.90;;;;;;;-1.29;100.00;97013.80;109630;1250;60182;-65
2023/11/25 02:42:09;;;;;;;9.10;6.60;;;;;;;-1.33;100.00;97020.02;109695;1251;75268;-65
2023/11/25 02:44:36;;;;;;;12.90;6.70;;;;;;;-1.36;100.00;97020.64;109612;1250;67656;-65
2023/11/25 02:47:04;;;;;;;12.50;7.90;;;;;;;-1.38;100.00;97019.27;109586;1251;71908;-65
2023/11/25 02:49:31;;;;;;;10.60;8.00;;;;;;;-1.39;100.00;97020.12;109640;1250;59841;-65
2023/11/25 02:51:58;;;;;;;11.70;7.60;;;;;;;-1.42;100.00;97024.56;109727;1251;59751;-65
2023/11/25 02:54:25;;;;;;;9.90;7.30;;;;;;;-1.44;100.00;97024.91;109637;1250;75327;-65
2023/11/25 02:56:51;;;;;;;11.70;7.00;;;;;;;-1.47;100.00;97024.55;109624;1250;59817;-65
2023/11/25 02:59:18;;;;;;;11.70;7.10;;;;;;;-1.50;100.00;97024.16;109657;1251;60054;-65
2023/11/25 03:01:49;;;;;;;11.60;7.40;;;;;;;-1.54;100.00;97023.59;109543;1251;60864;-65
2023/11/25 03:04:20;;;;;;;12.70;8.00;;;;;;;-1.56;100.00;97023.02;109588;1251;59836;-65
2023/11/25 03:06:50;;;;;;;13.30;7.80;;;;;;;-1.57;100.00;97019.89;109602;1250;74234;-65
2023/11/25 03:09:17;;;;;;;12.40;7.50;;;;;;;-1.59;100.00;97015.74;109647;1250;66700;-65
2023/11/25 03:11:45;;;;;;;10.40;7.10;;;;;;;-1.61;100.00;97014.48;109545;1251;72696;-65
2023/11/25 03:14:15;;;;;;;12.30;7.30;;;;;;;-1.62;100.00;97014.09;109539;1251;59952;-65
2023/11/25 03:16:41;;;;;;;11.80;7.30;;;;;;;-1.52;100.00;97022.13;109687;1250;60063;-65
2023/11/25 03:19:09;;;;;;;10.30;8.00;;;;;;;-1.53;100.00;97025.38;109627;1250;74095;-65
2023/11/25 03:21:36;;;;;;;13.80;8.40;;;;;;;-1.58;100.00;97023.60;109539;1250;67793;-65
2023/11/25 03:24:04;;;;;;;15.80;8.70;;;;;;;-1.59;100.00;97031.38;109582;1251;72537;-65
2023/11/25 03:26:31;;;;;;;13.10;8.20;;;;;;;-1.54;100.00;97037.92;109577;1250;60287;-65
2023/11/25 03:28:58;;;;;;;12.40;7.20;;;;;;;-1.51;100.00;97046.00;109655;1250;59994;-65
2023/11/25 03:31:25;;;;;;;10.20;7.80;;;;;;;-1.44;100.00;97049.52;109651;1250;74302;-65
2023/11/25 03:33:51;;;;;;;12.40;8.40;;;;;;;-1.35;100.00;97053.27;109620;1250;67835;-65
2023/11/25 03:36:18;;;;;;;12.10;8.10;;;;;;;-1.25;100.00;97051.04;109626;1251;59810;-65
2023/11/25 03:38:44;;;;;;;11.10;7.60;;;;;;;-1.15;100.00;97048.60;109635;1250;59913;-65
2023/11/25 03:41:12;;;;;;;13.50;8.10;;;;;;;-1.07;100.00;97048.45;109656;1250;60089;-65
2023/11/25 03:43:39;;;;;;;15.40;8.10;;;;;;;-1.00;100.00;97049.33;109624;1250;73888;-65
2023/11/25 03:46:06;;;;;;;10.40;7.80;;;;;;;-0.94;100.00;97052.87;109640;1250;68031;-64
2023/11/25 03:48:34;;;;;;;11.20;7.30;;;;;;;-0.89;100.00;97055.11;109622;1250;72464;-64
2023/11/25 03:51:01;;;;;;;13.00;7.10;;;;;;;-0.84;100.00;97055.27;109567;1250;60902;-64
2023/11/25 03:53:27;;;;;;;9.60;7.30;;;;;;;-0.78;100.00;97056.64;109585;1251;59712;-65
2023/11/25 03:55:54;;;;;;;11.10;7.80;;;;;;;-0.75;100.00;97060.77;109671;1250;60239;-64
2023/11/25 03:58:20;;;;;;;10.50;7.80;;;;;;;-0.72;100.00;97066.16;109673;1251;59752;-64
2023/11/25 04:00:47;;;;;;;9.60;7.40;;;;;;;-0.66;100.00;97072.05;109660;1250;60007;-64
2023/11/25 04:03:13;;;;;;;11.30;8.30;;;;;;;-0.61;100.00;97078.31;109651;1251;59801;-64
2023/11/25 04:05:40;;;;;;;10.10;7.40;;;;;;;-0.59;100.00;97088.01;109541;1250;61134;-65
2023/11/25 04:08:06;;;;;;;12.80;8.00;;;;;;;-0.58;100.00;97091.25;109543;1251;59852;-65
2023/11/25 04:10:33;;;;;;;12.70;8.10;;;;;;;-0.57;100.00;97083.88;109694;1250;59838;-65
2023/11/25 04:12:59;;;;;;;9.50;7.20;;;;;;;-0.55;100.00;97084.31;109678;1251;59931;-65
2023/11/25 04:15:26;;;;;;;10.60;7.30;;;;;;;-0.54;100.00;97084.86;109605;1250;59713;-65
2023/11/25 04:17:53;;;;;;;12.60;8.40;;;;;;;-0.52;100.00;97083.86;109657;1250;59687;-65
2023/11/25 04:20:29;;;;;;;12.10;8.60;;;;;;;-0.52;100.00;97082.28;109663;1251;74457;-65
2023/11/25 04:23:05;;;;;;;11.70;7.90;;;;;;;-0.54;100.00;97080.67;109580;1251;65404;-65
2023/11/25 04:25:32;;;;;;;12.10;8.30;;;;;;;-0.57;100.00;97087.17;109595;1250;70843;-65
2023/11/25 04:27:59;;;;;;;15.20;8.00;;;;;;;-0.60;100.00;97095.64;109689;1251;59739;-66
2023/11/25 04:30:25;;;;;;;9.80;7.60;;;;;;;-0.62;100.00;97097.42;109655;1250;59884;-65
2023/11/25 04:32:52;;;;;;;13.10;8.00;;;;;;;-0.61;100.00;97101.84;109600;1250;60249;-65
2023/11/25 04:35:18;;;;;;;10.20;7.70;;;;;;;-0.58;100.00;97101.89;109622;1251;59791;-64
2023/11/25 04:37:45;;;;;;;12.60;7.50;;;;;;;-0.54;100.00;97099.73;109642;1251;71699;-65
2023/11/25 04:40:12;;;;;;;9.90;6.90;;;;;;;-0.51;100.00;97098.02;109624;1250;59700;-65
2023/11/25 04:42:41;;;;;;;9.60;7.10;;;;;;;-0.50;100.00;97098.05;109677;1250;60332;-65
2023/11/25 04:45:19;;;;;;;10.00;6.70;;;;;;;-0.53;100.00;97096.98;109617;1250;75543;-66
2023/11/25 04:47:47;;;;;;;10.00;7.20;;;;;;;-0.57;100.00;97103.73;109641;1250;67809;-65
2023/11/25 04:50:14;;;;;;;10.90;7.50;;;;;;;-0.63;100.00;97107.20;109607;1250;70626;-65
2023/11/25 04:52:41;;;;;;;12.60;7.90;;;;;;;-0.65;100.00;97107.57;109559;1250;60143;-65
2023/11/25 04:55:09;;;;;;;10.70;7.00;;;;;;;-0.63;100.00;97108.79;109619;1250;59669;-65
2023/11/25 04:57:36;;;;;;;10.40;6.60;;;;;;;-0.60;100.00;97120.48;109723;1250;74184;-65
2023/11/25 05:00:08;;;;;;;9.00;6.80;;;;;;;-0.57;100.00;97129.04;109678;1249;66692;-65
2023/11/25 05:02:39;;;;;;;8.80;7.60;;;;;;;-0.54;100.00;97126.55;109671;1250;72689;-67
2023/11/25 05:05:06;;;;;;;11.90;7.50;;;;;;;-0.50;100.00;97126.42;109593;1250;60970;-63
2023/11/25 05:07:33;;;;;;;10.00;7.90;;;;;;;-0.39;100.00;97122.55;109675;1250;59696;-69
2023/11/25 05:10:00;;;;;;;9.30;6.90;;;;;;;-0.42;100.00;97120.23;109619;1250;75279;-65
2023/11/25 05:12:27;;;;;;;10.80;7.00;;;;;;;-0.43;100.00;97129.04;109606;1250;68060;-64
2023/11/25 05:14:54;;;;;;;7.90;6.10;;;;;;;-0.43;100.00;97130.55;109641;1251;72627;-67
2023/11/25 05:17:21;;;;;;;8.90;6.50;;;;;;;-0.41;100.00;97132.96;109590;1250;59785;-63
2023/11/25 05:19:48;;;;;;;7.60;6.50;;;;;;;-0.39;100.00;97138.48;109715;1250;59862;-68
2023/11/25 05:22:15;;;;;;;10.20;6.80;;;;;;;-0.38;100.00;97143.31;109614;1250;75102;-66
2023/11/25 05:24:42;;;;;;;8.60;6.60;;;;;;;-0.27;100.00;97144.63;109633;1250;66746;-64
2023/11/25 05:27:09;;;;;;;9.20;6.70;;;;;;;-0.16;100.00;97144.59;109621;1250;72509;-65
2023/11/25 05:29:36;;;;;;;9.70;6.70;;;;;;;-0.14;100.00;97146.10;109578;1250;60919;-65
2023/11/25 05:32:03;;;;;;;11.10;6.80;;;;;;;-0.21;100.00;97147.98;109670;1251;59643;-67
2023/11/25 05:34:30;;;;;;;9.60;7.10;;;;;;;-0.31;100.00;97151.30;109663;1250;73597;-64
2023/11/25 05:36:57;;;;;;;11.10;7.80;;;;;;;-0.36;100.00;97150.16;109601;1250;66980;-65
2023/11/25 05:39:24;;;;;;;10.10;6.90;;;;;;;-0.40;100.00;97147.52;109638;1250;72490;-67
2023/11/25 05:41:51;;;;;;;8.90;7.00;;;;;;;-0.44;100.00;97148.45;109622;1250;61047;-64
2023/11/25 05:44:20;;;;;;;9.60;6.30;;;;;;;-0.50;100.00;97152.38;109659;1252;59734;-66
2023/11/25 05:46:46;;;;;;;8.90;6.80;;;;;;;-0.55;100.00;97153.12;109578;1250;75283;-64
2023/11/25 05:49:13;;;;;;;11.40;7.70;;;;;;;-0.59;100.00;97166.39;109585;1250;67625;-65
2023/11/25 05:51:42;;;;;;;9.60;6.80;;;;;;;-0.59;100.00;97172.48;109639;1250;71144;-67
2023/11/25 05:54:12;;;;;;;9.80;6.40;;;;;;;-0.59;100.00;97183.46;109620;1250;59774;-67
2023/11/25 05:56:40;;;;;;;9.10;6.70;;;;;;;-0.59;100.00;97186.95;109663;1250;60335;-75
2023/11/25 05:59:09;;;;;;;9.30;6.60;;;;;;;-0.60;100.00;97185.45;109465;1250;75147;-68
2023/11/25 06:01:37;;;;;;;10.50;6.90;;;;;;;-0.60;100.00;97182.29;109653;1250;67790;-66
2023/11/25 06:04:03;;;;;;;8.80;6.20;;;;;;;-0.60;100.00;97191.37;109619;1253;72558;-65
2023/11/25 06:06:30;;;;;;;7.10;5.70;;;;;;;-0.60;100.00;97193.81;109657;1250;61173;-68
2023/11/25 06:08:57;;;;;;;9.00;5.50;;;;;;;-0.57;100.00;97193.56;109657;1251;60506;-68
2023/11/25 06:11:34;;;;;;;8.50;5.90;;;;;;;-0.50;100.00;97194.70;109636;1250;76066;-67
2023/11/25 06:14:00;;;;;;;11.90;6.80;;;;;;;-0.37;100.00;97203.28;109611;1250;68149;-69
2023/11/25 06:16:29;;;;;;;8.40;6.60;;;;;;;-0.24;100.00;97200.00;109602;1250;71487;-66
2023/11/25 06:18:55;;;;;;;9.10;5.80;;;;;;;-0.11;100.00;97202.06;109593;1250;61103;-67
2023/11/25 06:21:22;;;;;;;9.00;7.50;;;;;;;0.04;100.00;97197.90;109641;1250;60267;-69
2023/11/25 06:23:50;;;;;;;9.60;6.80;;;;;;;0.14;100.00;97198.44;109600;1253;75110;-67
2023/11/25 06:26:17;;;;;;;8.70;7.00;;;;;;;0.22;100.00;97197.75;109625;1251;67093;-68
2023/11/25 06:28:44;;;;;;;8.70;6.20;;;;;;;0.34;100.00;97195.66;109525;1250;70195;-68
2023/11/25 06:31:14;;;;;;;9.20;6.50;;;;;;;0.35;100.00;97195.67;109648;1250;59746;-67
2023/11/25 06:33:41;;;;;;;6.70;5.80;;;;;;;0.48;100.00;97198.13;109544;1251;60152;-69
2023/11/25 06:36:08;;;;;;;6.70;6.00;;;;;;;0.45;100.00;97199.47;109624;1251;75299;-65
2023/11/25 06:38:35;;;;;;;7.40;5.60;;;;;;;0.38;100.00;97203.20;109629;1251;66399;-66
2023/11/25 06:41:02;;;;;;;8.70;6.40;;;;;;;0.36;100.00;97211.40;109662;1251;71064;-68
2023/11/25 06:43:29;;;;;;;7.50;6.70;;;;;;;0.33;100.00;97213.38;109657;1251;59865;-68
2023/11/25 06:45:55;;;;;;;7.80;6.20;;;;;;;0.27;100.00;97213.77;109620;1251;59771;-68
2023/11/25 06:48:25;;;;;;;7.60;6.10;;;;;;;0.30;100.00;97217.30;109641;1251;75483;-64
2023/11/25 06:50:54;;;;;;;6.40;5.50;;;;;;;0.37;100.00;97219.36;109580;1251;67846;-69
2023/11/25 06:53:21;;;;;;;8.50;5.60;;;;;;;0.46;100.00;97216.80;109446;1251;71442;-70
2023/11/25 06:55:47;;;;;;;17.60;7.40;;;;;;;0.61;100.00;97217.70;109519;1250;59765;-69
2023/11/25 06:58:14;;;;;;;9.60;6.40;;;;;;;0.78;100.00;97218.63;109652;1251;59766;-70
2023/11/25 07:00:41;;;;;;;10.60;8.00;;;;;;;0.98;100.00;97215.60;109568;1251;75414;-68
2023/11/25 07:03:14;;;;;;;7.60;5.60;;;;;;;1.35;100.00;97216.42;109690;1251;67469;-65
2023/11/25 07:05:41;;;;;;;8.80;5.50;;;;;;;1.53;100.00;97216.48;109596;1250;71178;-66
2023/11/25 07:08:08;;;;;;;7.50;5.60;;;;;;;1.70;100.00;97210.63;109574;1250;59696;-68
2023/11/25 07:10:35;;;;;;;7.50;5.10;;;;;;;1.76;100.00;97207.63;109555;1250;59785;-66
2023/11/25 07:13:02;;;;;;;7.60;5.90;;;;;;;1.64;100.00;97203.40;109643;1251;75262;-65
2023/11/25 07:15:29;;;;;;;7.30;5.60;;;;;;;1.62;100.00;97196.76;109641;1250;66664;-64
2023/11/25 07:17:56;;;;;;;8.00;5.70;;;;;;;1.64;100.00;97194.37;109583;1251;72024;-62
2023/11/25 07:20:23;;;;;;;6.90;5.20;;;;;;;1.66;100.00;97190.06;109648;1250;60649;-64
2023/11/25 07:22:50;;;;;;;8.60;5.60;;;;;;;1.68;100.00;97191.20;109659;1251;60415;-64
2023/11/25 07:25:18;;;;;;;6.30;5.00;;;;;;;1.67;100.00;97183.60;109589;1251;73946;-66
2023/11/25 07:27:45;;;;;;;6.40;4.80;;;;;;;1.69;100.00;97187.79;109613;1249;66678;-66
2023/11/25 07:30:13;;;;;;;8.40;5.30;;;;;;;1.76;100.00;97186.62;109689;1250;72650;-62
2023/11/25 07:32:40;;;;;;;9.40;5.80;;;;;;;1.84;100.00;97179.06;109574;1250;60080;-64
2023/11/25 07:35:08;;;;;;;9.70;5.10;;;;;;;1.94;100.00;97174.38;109654;1250;60328;-68
2023/11/25 07:37:38;;;;;;;8.20;5.50;;;;;;;1.98;100.00;97168.86;109675;1250;75269;-64
2023/11/25 07:40:12;;;;;;;10.40;6.00;;;;;;;2.00;100.00;97169.13;109581;1251;67618;-64
2023/11/25 07:42:41;;;;;;;9.20;7.00;;;;;;;2.01;100.00;97171.45;109510;1251;72712;-68
2023/11/25 07:45:09;;;;;;;8.60;6.80;;;;;;;2.00;100.00;97160.21;109605;1251;59823;-67
2023/11/25 07:47:36;;;;;;;6.00;5.40;;;;;;;1.99;100.00;97164.64;109626;1251;59854;-63
2023/11/25 07:50:03;;;;;;;10.00;4.90;;;;;;;1.96;100.00;97169.41;109639;1251;75806;-65
2023/11/25 07:52:30;;;;;;;6.50;5.10;;;;;;;1.90;100.00;97174.23;109629;1250;67681;-66
2023/11/25 07:54:57;;;;;;;7.60;6.20;;;;;;;1.86;100.00;97177.14;109549;1250;71385;-65
2023/11/25 07:57:24;;;;;;;9.90;6.90;;;;;;;1.83;100.00;97183.11;109631;1251;60890;-70
2023/11/25 07:59:51;;;;;;;8.20;6.60;;;;;;;1.75;100.00;97179.05;109515;1251;59627;-66
2023/11/25 08:02:18;;;;;;;12.70;7.90;;;;;;;1.71;100.00;97180.18;109682;1250;75530;-67
2023/11/25 08:04:44;;;;;;;9.60;6.30;;;;;;;1.70;100.00;97178.41;109631;1250;67604;-61
2023/11/25 08:07:20;;;;;;;8.20;5.40;;;;;;;1.70;100.00;97182.27;109616;1251;71293;-63
2023/11/25 08:09:47;;;;;;;6.20;5.60;;;;;;;1.71;100.00;97176.74;109589;1251;59837;-65
2023/11/25 08:12:13;;;;;;;7.80;4.60;;;;;;;1.71;100.00;97178.48;109601;1250;59800;-67
2023/11/25 08:14:40;;;;;;;6.70;5.60;;;;;;;1.69;100.00;97182.75;109645;1250;74167;-66
2023/11/25 08:17:07;;;;;;;7.00;5.20;;;;;;;1.68;100.00;97184.42;109574;1252;66546;-66
2023/11/25 08:19:33;;;;;;;6.30;5.50;;;;;;;1.70;100.00;97185.20;109583;1251;72818;-65
2023/11/25 08:22:00;;;;;;;5.50;4.60;;;;;;;1.74;100.00;97188.10;109628;1250;59759;-68
2023/11/25 08:24:26;;;;;;;6.30;5.20;;;;;;;1.79;100.00;97182.63;109622;1251;59806;-66
2023/11/25 08:26:53;;;;;;;6.80;4.60;;;;;;;1.82;100.00;97186.45;109676;1250;74004;-68
2023/11/25 08:29:20;;;;;;;5.40;4.50;;;;;;;1.84;100.00;97191.16;109633;1251;59725;-72
2023/11/25 08:31:47;;;;;;;5.90;4.80;;;;;;;1.84;100.00;97191.67;109543;1251;72675;-69
2023/11/25 08:34:14;;;;;;;8.30;4.90;;;;;;;1.83;100.00;97191.27;109621;1251;60246;-70
2023/11/25 08:36:53;;;;;;;7.00;4.10;;;;;;;1.82;100.00;97193.02;109680;1250;59659;-70
2023/11/25 08:39:26;;;;;;;8.10;4.90;;;;;;;1.76;100.00;97200.92;109651;1250;74673;-67
2023/11/25 08:41:53;;;;;;;8.10;4.90;;;;;;;1.73;100.00;97206.62;109692;1251;68032;-66
2023/11/25 08:44:20;;;;;;;6.30;4.50;;;;;;;1.70;100.00;97210.63;109531;1250;71543;-68
2023/11/25 08:46:48;;;;;;;6.20;4.40;;;;;;;1.69;100.00;97214.00;109594;1251;59894;-68
2023/11/25 08:49:14;;;;;;;6.30;4.50;;;;;;;1.70;100.00;97212.36;109605;1250;60154;-68
2023/11/25 08:51:45;;;;;;;9.00;5.30;;;;;;;1.70;100.00;97210.88;109649;1250;75132;-69
2023/11/25 08:54:18;;;;;;;6.60;5.10;;;;;;;1.71;100.00;97214.30;109634;1251;66774;-69
2023/11/25 08:56:45;;;;;;;8.50;7.10;;;;;;;1.71;100.00;97215.99;109572;1250;70385;-71
2023/11/25 08:59:17;;;;;;;9.30;6.70;;;;;;;1.71;100.00;97219.02;109560;1250;59770;-66
2023/11/25 09:01:44;;;;;;;8.00;5.30;;;;;;;1.71;100.00;97221.66;109455;1251;59901;-70
2023/11/25 09:04:16;;;;;;;7.80;5.40;;;;;;;1.72;100.00;97219.98;109629;1250;74252;-70
2023/11/25 09:06:45;;;;;;;9.50;5.50;;;;;;;1.73;100.00;97216.17;109608;1251;67950;-73
2023/11/25 09:09:14;;;;;;;6.00;4.40;;;;;;;1.76;100.00;97213.02;109608;1251;71860;-70
2023/11/25 09:11:40;;;;;;;6.20;4.80;;;;;;;1.80;100.00;97216.05;109599;1250;60064;-64
2023/11/25 09:14:07;;;;;;;7.10;5.20;;;;;;;1.86;100.00;97220.89;109605;1250;59993;-72
2023/11/25 09:16:34;;;;;;;9.00;6.60;;;;;;;1.91;100.00;97221.48;109635;1251;75229;-66
2023/11/25 09:19:00;;;;;;;8.40;6.10;;;;;;;1.96;100.00;97217.48;109619;1250;66694;-69
2023/11/25 09:21:27;;;;;;;8.50;6.10;;;;;;;1.99;100.00;97214.83;109617;1250;71142;-70
2023/11/25 09:23:55;;;;;;;8.20;6.20;;;;;;;2.04;100.00;97211.59;109623;1250;60996;-61
2023/11/25 09:26:24;;;;;;;6.60;5.00;;;;;;;2.11;100.00;97213.78;109580;1251;59655;-65
2023/11/25 09:28:52;;;;;;;9.10;6.40;;;;;;;2.20;100.00;97211.18;109644;1250;75248;-67
2023/11/25 09:31:19;;;;;;;7.10;5.90;;;;;;;2.36;100.00;97210.49;109639;1250;68324;-66
2023/11/25 09:33:46;;;;;;;7.00;6.30;;;;;;;2.72;100.00;97202.63;109647;1251;72379;-63
2023/11/25 09:36:13;;;;;;;7.80;5.80;;;;;;;3.33;100.00;97203.02;109573;1250;60137;-65
2023/11/25 09:38:39;;;;;;;10.50;7.70;;;;;;;3.70;100.00;97196.97;109631;1250;60732;-64
2023/11/25 09:41:06;;;;;;;7.70;6.50;;;;;;;3.86;100.00;97194.39;109664;1250;59834;-66
2023/11/25 09:43:32;;;;;;;6.30;5.70;;;;;;;3.93;100.00;97189.70;109643;1251;59790;-66
2023/11/25 09:46:00;;;;;;;7.50;6.40;;;;;;;3.93;100.00;97186.11;109519;1250;72588;-64
2023/11/25 09:48:27;;;;;;;7.10;6.40;;;;;;;3.83;100.00;97180.52;109622;1251;59839;-69
2023/11/25 09:50:54;;;;;;;7.80;5.70;;;;;;;3.73;100.00;97177.36;109663;1251;59896;-67
2023/11/25 09:53:31;;;;;;;7.70;5.80;;;;;;;3.63;100.00;97182.23;109499;1251;172892;-66
2023/11/25 09:56:05;;;;;;;8.90;6.30;;;;;;;3.51;100.00;97185.92;109513;1250;66528;-72
2023/11/25 09:58:36;;;;;;;9.20;7.00;;;;;;;3.45;100.00;97189.60;109485;1251;71357;-70
2023/11/25 10:01:05;;;;;;;9.40;6.80;;;;;;;3.48;100.00;97191.84;109514;1251;59886;-72
2023/11/25 10:03:33;;;;;;;8.70;6.50;;;;;;;3.47;100.00;97196.90;109616;1254;59797;-72
2023/11/25 10:06:01;;;;;;;7.40;6.10;;;;;;;3.41;100.00;97200.08;109674;1251;75249;-71
2023/11/25 10:08:30;;;;;;;6.40;5.00;;;;;;;3.34;100.00;97201.80;109690;1250;67972;-71
2023/11/25 10:11:07;;;;;;;7.00;6.30;;;;;;;3.25;100.00;97208.51;109567;1251;72517;-71
2023/11/25 10:13:38;;;;;;;6.20;5.60;;;;;;;3.11;100.00;97217.27;109484;1252;62067;-72
2023/11/25 10:16:06;;;;;;;8.20;5.80;;;;;;;2.96;100.00;97222.10;109612;1251;59798;-72
2023/11/25 10:18:36;;;;;;;7.90;6.20;;;;;;;2.77;100.00;97222.02;109653;1251;75958;-72
2023/11/25 10:21:05;;;;;;;7.30;5.20;;;;;;;2.63;100.00;97223.40;109641;1251;66419;-73
2023/11/25 10:23:34;;;;;;;9.40;6.40;;;;;;;2.56;100.00;97228.34;109589;1251;72715;-72
2023/11/25 10:26:03;;;;;;;9.20;6.60;;;;;;;2.48;100.00;97229.74;109615;1251;60023;-73
2023/11/25 10:28:35;;;;;;;6.80;5.80;;;;;;;2.41;100.00;97233.25;109637;1250;59766;-74
2023/11/25 10:31:05;;;;;;;8.40;7.30;;;;;;;2.36;100.00;97237.33;109652;1251;74069;-72
2023/11/25 10:33:33;;;;;;;8.80;7.10;;;;;;;2.36;100.00;97240.48;109666;1250;66900;-73
2023/11/25 10:36:00;;;;;;;8.80;6.60;;;;;;;2.39;100.00;97237.88;109633;1251;70629;-74
2023/11/25 10:38:27;;;;;;;6.80;5.70;;;;;;;2.47;100.00;97236.95;109532;1251;59720;-73
2023/11/25 10:41:00;;;;;;;6.70;6.10;;;;;;;2.55;100.00;97239.04;109604;1251;60141;-74
2023/11/25 10:43:27;;;;;;;8.10;7.30;;;;;;;2.60;100.00;97243.38;109661;1250;75262;-72
2023/11/25 10:46:08;;;;;;;8.20;6.30;;;;;;;2.78;100.00;97247.41;109641;1251;66603;-72
2023/11/25 10:48:40;;;;;;;8.70;6.60;;;;;;;2.91;100.00;97248.77;109628;1250;72517;-71
2023/11/25 10:51:08;;;;;;;10.90;8.80;;;;;;;2.84;100.00;97251.77;109624;1251;59892;-72
2023/11/25 10:53:36;;;;;;;11.50;9.80;;;;;;;2.81;100.00;97251.31;109627;1250;59700;-71
2023/11/25 10:56:03;;;;;;;11.40;8.10;;;;;;;2.81;100.00;97244.48;109637;1251;75255;-67
2023/11/25 10:58:30;;;;;;;13.10;8.60;;;;;;;2.86;100.00;97237.05;109656;1251;68624;-72
2023/11/25 11:01:00;;;;;;;10.10;7.20;;;;;;;2.95;100.00;97237.90;109609;1250;72432;-71
2023/11/25 11:03:49;;;;;;;7.60;6.00;;;;;;;3.02;100.00;97235.66;109328;1250;59845;-73
2023/11/25 11:06:20;;;;;;;5.60;4.90;;;;;;;3.05;100.00;97239.55;109618;1251;60082;-74
2023/11/25 11:08:46;;;;;;;5.90;4.80;;;;;;;3.02;100.00;97228.23;109458;1250;75458;-71
2023/11/25 11:11:15;;;;;;;5.70;4.90;;;;;;;3.04;100.00;97222.03;109612;1250;67900;-71
2023/11/25 11:13:54;;;;;;;6.80;5.20;;;;;;;3.02;100.00;97221.88;109470;1251;71357;-69
2023/11/25 11:16:31;;;;;;;6.50;5.20;;;;;;;3.05;100.00;97214.54;109509;1251;60549;-70
2023/11/25 11:18:57;;;;;;;8.50;6.10;;;;;;;3.20;100.00;97205.11;109612;1251;60414;-73